Time;durP1;ratioP1;P1;durP2;ratioP2;P2;SDS_P1;SDS_P2;PMS_P1;PMS_P2;Temp;Humidity;BMP_temperature;BMP_pressure;BME280_temperature;BME280_humidity;BME280_pressure;Samples;Min_cycle;Max_cycle;Signal;HPM_P1;HPM_P2
2021/01/21 00:00:29;;;;;;;60.33;26.93;;;;;;;0.90;83.59;99199.17;120622;1150;104324;-81
2021/01/21 00:03:04;;;;;;;66.93;28.17;;;;;;;0.90;83.46;99194.05;120684;1151;104321;-81
2021/01/21 00:05:31;;;;;;;59.70;26.47;;;;;;;0.88;83.85;99196.59;120662;1150;104441;-81
2021/01/21 00:07:59;;;;;;;53.47;26.33;;;;;;;0.86;83.58;99188.06;120749;1150;104307;-81
2021/01/21 00:10:26;;;;;;;56.92;26.68;;;;;;;0.85;83.86;99185.52;120672;1150;104343;-81
2021/01/21 00:12:53;;;;;;;59.47;26.33;;;;;;;0.85;83.73;99190.65;120724;1148;104352;-81
2021/01/21 00:15:20;;;;;;;48.97;25.93;;;;;;;0.85;83.68;99185.52;120651;1150;104372;-81
2021/01/21 00:17:48;;;;;;;58.40;26.80;;;;;;;0.84;83.55;99189.80;120755;1150;104492;-81
2021/01/21 00:20:16;;;;;;;58.30;28.10;;;;;;;0.84;83.72;99184.66;120746;1150;104482;-81
2021/01/21 00:22:43;;;;;;;49.50;25.45;;;;;;;0.83;83.77;99188.09;120661;1150;104356;-81
2021/01/21 00:25:11;;;;;;;52.13;25.40;;;;;;;0.83;83.64;99177.83;120728;1150;104314;-81
2021/01/21 00:27:38;;;;;;;50.40;24.37;;;;;;;0.83;83.49;99179.55;120628;1150;104301;-81
2021/01/21 00:30:08;;;;;;;49.97;25.27;;;;;;;0.83;83.70;99179.55;120583;1149;104401;-81
2021/01/21 00:32:38;;;;;;;42.93;23.80;;;;;;;0.83;83.73;99176.98;120613;1148;104463;-82
2021/01/21 00:35:06;;;;;;;45.63;23.23;;;;;;;0.84;84.01;99178.68;120721;1148;104408;-81
2021/01/21 00:37:33;;;;;;;42.13;23.67;;;;;;;0.85;83.64;99188.08;120651;1150;104340;-81
2021/01/21 00:40:01;;;;;;;51.27;25.90;;;;;;;0.84;83.50;99192.36;120682;1148;101861;-81
2021/01/21 00:42:28;;;;;;;45.10;24.60;;;;;;;0.85;83.51;99190.65;120611;1148;104315;-81
2021/01/21 00:44:55;;;;;;;46.93;24.23;;;;;;;0.84;83.75;99186.37;120650;1150;104391;-81
2021/01/21 00:47:23;;;;;;;44.20;24.17;;;;;;;0.84;83.51;99191.52;120618;1148;103712;-81
2021/01/21 00:49:51;;;;;;;49.47;24.53;;;;;;;0.82;83.51;99190.69;120666;1151;104495;-81
2021/01/21 00:52:18;;;;;;;45.23;23.70;;;;;;;0.79;83.49;99185.59;120674;1150;104913;-81
2021/01/21 00:54:46;;;;;;;47.53;25.80;;;;;;;0.78;83.60;99195.00;121266;1150;104421;-81
2021/01/21 00:57:13;;;;;;;41.60;23.75;;;;;;;0.75;83.40;99195.03;121267;1150;104487;-81
2021/01/21 00:59:40;;;;;;;49.30;24.53;;;;;;;0.73;83.43;99190.79;121063;1151;103054;-81
2021/01/21 01:02:08;;;;;;;49.93;24.83;;;;;;;0.69;83.26;99199.36;120687;1151;104345;-81
2021/01/21 01:04:38;;;;;;;43.50;23.70;;;;;;;0.66;83.16;99189.97;120712;1148;104341;-81
2021/01/21 01:07:06;;;;;;;49.75;25.30;;;;;;;0.60;83.68;99188.33;120749;1150;103063;-81
2021/01/21 01:09:33;;;;;;;47.37;25.27;;;;;;;0.56;83.74;99189.22;120630;1150;104530;-81
2021/01/21 01:12:00;;;;;;;47.20;24.33;;;;;;;0.53;83.55;99193.50;120714;1149;105275;-81
2021/01/21 01:14:30;;;;;;;48.63;25.77;;;;;;;0.49;83.62;99182.42;120734;1148;104468;-81
2021/01/21 01:16:57;;;;;;;47.97;25.67;;;;;;;0.47;83.84;99186.72;120732;1150;104460;-81
2021/01/21 01:19:25;;;;;;;50.43;25.40;;;;;;;0.42;83.93;99191.05;120692;1148;104480;-82
2021/01/21 01:21:52;;;;;;;44.30;24.73;;;;;;;0.39;84.19;99196.20;120732;1149;104336;-82
2021/01/21 01:24:21;;;;;;;43.50;25.10;;;;;;;0.36;83.90;99193.67;120657;1150;104364;-81
2021/01/21 01:26:49;;;;;;;47.07;25.70;;;;;;;0.33;83.89;99185.97;120672;1150;104391;-81
2021/01/21 01:29:19;;;;;;;48.43;25.90;;;;;;;0.31;84.39;99182.58;120652;1150;104387;-82
2021/01/21 01:31:47;;;;;;;47.30;24.97;;;;;;;0.29;84.46;99182.59;120671;1149;104522;-81
2021/01/21 01:34:16;;;;;;;47.03;25.67;;;;;;;0.27;84.41;99188.59;120614;1148;103225;-81
2021/01/21 01:37:04;;;;;;;53.60;26.30;;;;;;;0.24;84.57;99175.80;120682;1150;104412;-81
2021/01/21 01:39:35;;;;;;;46.93;25.53;;;;;;;0.22;84.28;99174.97;120700;1149;104320;-81
2021/01/21 01:42:10;;;;;;;50.47;25.90;;;;;;;0.20;84.53;99184.39;120770;1150;104382;-81
2021/01/21 01:44:41;;;;;;;47.53;25.17;;;;;;;0.18;84.47;99178.39;120630;1148;102936;-81
2021/01/21 01:47:09;;;;;;;53.43;26.27;;;;;;;0.15;84.70;99180.98;120683;1150;104272;-81
2021/01/21 01:49:38;;;;;;;50.27;26.33;;;;;;;0.13;84.40;99182.71;120611;1150;104336;-81
2021/01/21 01:52:05;;;;;;;48.60;26.93;;;;;;;0.10;84.35;99186.16;120754;1150;104399;-82
2021/01/21 01:54:33;;;;;;;47.03;25.70;;;;;;;0.08;84.50;99182.75;120589;1151;101834;-81
2021/01/21 01:57:16;;;;;;;48.77;26.43;;;;;;;0.06;84.70;99176.79;120672;1150;103262;-81
2021/01/21 01:59:44;;;;;;;50.40;26.23;;;;;;;0.04;84.10;99182.80;120695;1150;104481;-81
2021/01/21 02:02:11;;;;;;;48.83;26.80;;;;;;;0.03;84.43;99181.09;120716;1150;104343;-81
2021/01/21 02:04:40;;;;;;;47.83;26.33;;;;;;;0.01;84.55;99172.56;120706;1150;104322;-81
2021/01/21 02:07:14;;;;;;;51.30;27.33;;;;;;;-0.02;84.40;99174.27;120744;1150;103033;-82
2021/01/21 02:09:54;;;;;;;49.83;26.53;;;;;;;-0.03;84.69;99175.12;120748;1149;104519;-81
2021/01/21 02:12:47;;;;;;;50.90;27.47;;;;;;;-0.03;84.74;99187.94;120675;1149;104442;-81
2021/01/21 02:15:20;;;;;;;45.07;25.33;;;;;;;-0.05;84.53;99178.56;120722;1148;104288;-81
2021/01/21 02:17:56;;;;;;;48.33;26.47;;;;;;;-0.06;84.69;99176.86;120735;1150;104368;-81
2021/01/21 02:20:46;;;;;;;55.00;27.90;;;;;;;-0.09;84.64;99177.73;120713;1151;104367;-80
2021/01/21 02:23:47;;;;;;;48.50;26.53;;;;;;;-0.10;84.72;99173.48;120756;1149;104435;-80
2021/01/21 02:26:23;;;;;;;50.03;27.13;;;;;;;-0.13;84.18;99183.75;120739;1150;104543;-81
2021/01/21 02:28:57;;;;;;;50.48;27.87;;;;;;;-0.15;84.64;99182.91;120726;1148;104285;-81
2021/01/21 02:31:50;;;;;;;53.10;27.83;;;;;;;-0.17;84.87;99183.78;120797;1149;104373;-81
2021/01/21 02:34:43;;;;;;;54.37;29.23;;;;;;;-0.19;85.15;99181.20;120814;1148;104417;-81
2021/01/21 02:37:25;;;;;;;54.87;29.23;;;;;;;-0.20;84.80;99176.94;120703;1150;104397;-81
2021/01/21 02:40:04;;;;;;;54.45;28.70;;;;;;;-0.22;84.78;99170.98;120679;1150;104524;-81
2021/01/21 02:42:48;;;;;;;56.83;29.37;;;;;;;-0.21;85.22;99172.67;120758;1149;104556;-81
2021/01/21 02:45:18;;;;;;;55.00;29.47;;;;;;;-0.22;84.85;99170.98;120763;1150;104271;-81
2021/01/21 02:47:49;;;;;;;56.47;30.00;;;;;;;-0.23;84.68;99164.16;121058;1149;104351;-81
2021/01/21 02:50:17;;;;;;;51.93;30.53;;;;;;;-0.23;85.28;99168.42;121394;1148;103090;-81
2021/01/21 02:52:59;;;;;;;53.47;29.93;;;;;;;-0.23;84.92;99171.84;121288;1150;103726;-81
2021/01/21 02:55:46;;;;;;;53.80;29.37;;;;;;;-0.25;85.04;99168.44;120784;1150;104323;-81
2021/01/21 02:58:19;;;;;;;60.50;30.07;;;;;;;-0.25;84.77;99165.88;120746;1150;104342;-81
2021/01/21 03:00:51;;;;;;;53.57;29.77;;;;;;;-0.24;85.01;99170.14;120733;1148;104481;-81
2021/01/21 03:03:23;;;;;;;58.23;31.27;;;;;;;-0.25;84.80;99163.31;120742;1150;104459;-80
2021/01/21 03:05:55;;;;;;;58.53;31.03;;;;;;;-0.24;84.66;99165.02;120693;1148;104319;-80
2021/01/21 03:08:26;;;;;;;58.87;31.90;;;;;;;-0.25;84.91;99160.75;120713;1151;104193;-80
2021/01/21 03:11:11;;;;;;;55.53;30.63;;;;;;;-0.23;84.73;99160.73;120745;1150;104346;-81
2021/01/21 03:13:43;;;;;;;57.73;31.40;;;;;;;-0.25;84.79;99165.88;120728;1150;102635;-81
2021/01/21 03:16:11;;;;;;;57.50;31.53;;;;;;;-0.25;85.21;99160.75;120698;1148;103681;-81
2021/01/21 03:18:39;;;;;;;61.23;32.60;;;;;;;-0.26;84.97;99163.33;120686;1150;104378;-81
2021/01/21 03:21:07;;;;;;;62.13;32.93;;;;;;;-0.28;84.62;99155.66;120729;1150;102968;-81
2021/01/21 03:23:42;;;;;;;69.50;33.27;;;;;;;-0.29;85.13;99159.08;120768;1148;104433;-82
2021/01/21 03:26:10;;;;;;;63.83;33.83;;;;;;;-0.30;84.87;99162.50;120715;1150;103118;-81
2021/01/21 03:28:38;;;;;;;62.57;32.17;;;;;;;-0.30;84.76;99159.94;120800;1150;104346;-81
2021/01/21 03:31:07;;;;;;;62.23;33.47;;;;;;;-0.32;84.49;99156.53;120773;1151;104406;-81
2021/01/21 03:33:34;;;;;;;63.57;32.07;;;;;;;-0.32;85.23;99159.09;120716;1151;104355;-81
2021/01/21 03:36:02;;;;;;;61.67;32.00;;;;;;;-0.33;84.83;99172.77;120740;1151;104384;-81
2021/01/21 03:38:29;;;;;;;64.53;33.17;;;;;;;-0.35;84.60;99179.62;120808;1149;104345;-81
2021/01/21 03:41:15;;;;;;;69.37;36.43;;;;;;;-0.39;84.91;99173.62;120748;1149;103003;-81
2021/01/21 03:43:45;;;;;;;80.87;40.27;;;;;;;-0.43;84.71;99173.66;120731;1150;104652;-81
2021/01/21 03:46:23;;;;;;;79.97;40.57;;;;;;;-0.47;85.12;99174.55;120706;1150;104498;-80
2021/01/21 03:48:50;;;;;;;84.03;40.40;;;;;;;-0.51;84.95;99177.98;120746;1150;104509;-81
2021/01/21 03:51:47;;;;;;;80.67;39.00;;;;;;;-0.56;84.58;99184.81;120710;1150;104375;-81
2021/01/21 03:54:27;;;;;;;68.47;36.50;;;;;;;-0.61;85.08;99183.13;120791;1150;104573;-81
2021/01/21 03:56:54;;;;;;;73.93;38.20;;;;;;;-0.64;84.87;99180.59;120736;1148;104342;-82
2021/01/21 03:59:22;;;;;;;70.13;37.77;;;;;;;-0.66;84.94;99173.78;120748;1149;104379;-82
2021/01/21 04:01:54;;;;;;;61.97;34.63;;;;;;;-0.70;85.09;99180.63;120664;1150;104318;-82
2021/01/21 04:04:22;;;;;;;63.70;34.80;;;;;;;-0.72;84.71;99184.91;120700;1150;104407;-81
2021/01/21 04:06:49;;;;;;;63.07;33.87;;;;;;;-0.74;85.27;99186.59;120742;1150;104426;-81
2021/01/21 04:09:19;;;;;;;59.70;32.17;;;;;;;-0.76;85.30;99177.22;120697;1151;104507;-81
2021/01/21 04:12:07;;;;;;;56.93;30.40;;;;;;;-0.77;85.16;99180.64;120729;1151;104343;-82
2021/01/21 04:14:34;;;;;;;58.67;31.90;;;;;;;-0.78;85.30;99177.23;120743;1151;104359;-80
2021/01/21 04:17:02;;;;;;;56.63;31.20;;;;;;;-0.79;85.47;99169.55;120725;1150;104341;-81
2021/01/21 04:19:29;;;;;;;58.27;31.60;;;;;;;-0.79;85.65;99183.20;120695;1148;104909;-81
2021/01/21 04:21:56;;;;;;;57.73;31.23;;;;;;;-0.80;85.49;99171.27;120710;1151;104268;-81
2021/01/21 04:24:25;;;;;;;59.33;30.47;;;;;;;-0.79;85.00;99172.11;120710;1150;104403;-81
2021/01/21 04:26:57;;;;;;;62.20;31.77;;;;;;;-0.80;85.10;99168.70;120781;1150;104349;-81
2021/01/21 04:29:33;;;;;;;60.90;31.50;;;;;;;-0.82;85.97;99170.42;120712;1150;103220;-82
2021/01/21 04:32:00;;;;;;;55.27;30.50;;;;;;;-0.80;85.64;99165.30;120599;1150;104188;-79
2021/01/21 04:34:28;;;;;;;57.17;29.80;;;;;;;-0.81;85.84;99169.56;120586;1151;104386;-81
2021/01/21 04:36:56;;;;;;;62.13;31.37;;;;;;;-0.82;85.64;99167.86;120694;1148;104401;-81
2021/01/21 04:39:45;;;;;;;58.33;31.30;;;;;;;-0.81;85.15;99163.59;120779;1150;103076;-82
2021/01/21 04:42:14;;;;;;;54.73;29.53;;;;;;;-0.82;85.29;99162.74;121492;1150;101877;-81
2021/01/21 04:44:43;;;;;;;59.60;31.23;;;;;;;-0.83;85.70;99161.05;121616;1150;104322;-81
2021/01/21 04:47:22;;;;;;;59.27;29.57;;;;;;;-0.84;85.16;99164.46;121124;1150;102221;-81
2021/01/21 04:50:14;;;;;;;56.10;29.47;;;;;;;-0.84;85.25;99161.05;120746;1150;104381;-81
2021/01/21 04:52:55;;;;;;;53.97;28.83;;;;;;;-0.85;85.54;99157.64;120760;1148;104323;-81
2021/01/21 04:55:46;;;;;;;54.33;30.03;;;;;;;-0.84;85.51;99163.61;120697;1148;104547;-81
2021/01/21 04:58:57;;;;;;;;;;;;;;;-0.84;85.36;99164.46;120498;1154;104521;-81
2021/01/21 05:01:44;;;;;;;59.83;29.40;;;;;;;-0.86;85.61;99161.06;120528;1151;104776;-81
2021/01/21 05:04:14;;;;;;;57.33;30.17;;;;;;;-0.86;85.27;99160.20;120699;1151;104417;-81
2021/01/21 05:06:51;;;;;;;56.70;29.10;;;;;;;-0.85;85.40;99157.64;120698;1148;104339;-81
2021/01/21 05:09:20;;;;;;;55.47;30.10;;;;;;;-0.86;85.23;99167.89;120737;1148;104531;-81
2021/01/21 05:11:48;;;;;;;51.40;28.97;;;;;;;-0.87;85.25;99169.59;120710;1148;105133;-81
2021/01/21 05:14:29;;;;;;;59.33;29.73;;;;;;;-0.87;85.73;99169.59;120736;1148;104364;-81
2021/01/21 05:17:06;;;;;;;53.17;29.17;;;;;;;-0.87;85.66;99169.59;120726;1150;104404;-81
2021/01/21 05:19:52;;;;;;;58.40;30.80;;;;;;;-0.88;85.24;99167.89;120668;1151;104347;-81
2021/01/21 05:22:39;;;;;;;56.30;30.02;;;;;;;-0.88;85.22;99178.13;120707;1148;104370;-82
2021/01/21 05:25:29;;;;;;;56.43;30.13;;;;;;;-0.87;85.31;99177.27;120667;1148;104446;-82
2021/01/21 05:28:15;;;;;;;56.73;30.13;;;;;;;-0.87;85.33;99176.42;120703;1148;104278;-81
2021/01/21 05:31:03;;;;;;;55.83;29.43;;;;;;;-0.87;85.66;99172.16;120742;1148;104194;-81
2021/01/21 05:33:45;;;;;;;53.80;28.53;;;;;;;-0.89;85.14;99168.75;120726;1148;103014;-81
2021/01/21 05:36:16;;;;;;;49.87;28.77;;;;;;;-0.88;85.30;99178.13;120660;1148;104486;-81
2021/01/21 05:39:05;;;;;;;56.33;29.60;;;;;;;-0.87;85.31;99178.98;120711;1151;104319;-81
2021/01/21 05:41:52;;;;;;;57.80;30.73;;;;;;;-0.87;85.11;99184.10;120686;1150;104344;-81
2021/01/21 05:44:31;;;;;;;53.03;28.67;;;;;;;-0.88;85.37;99183.25;120781;1148;104297;-81
2021/01/21 05:47:10;;;;;;;57.80;29.43;;;;;;;-0.89;84.79;99186.67;120708;1148;104423;-81
2021/01/21 05:49:40;;;;;;;54.83;29.67;;;;;;;-0.89;85.11;99194.35;120757;1148;104911;-80
2021/01/21 05:52:12;;;;;;;56.37;29.63;;;;;;;-0.89;84.76;99194.35;120776;1148;104401;-81
2021/01/21 05:54:40;;;;;;;54.73;29.40;;;;;;;-0.88;85.50;99184.96;120742;1148;104362;-82
2021/01/21 05:57:11;;;;;;;56.80;30.17;;;;;;;-0.89;85.08;99186.67;120779;1148;104922;-81
2021/01/21 05:59:39;;;;;;;52.60;29.23;;;;;;;-0.91;85.57;99178.12;120743;1150;104423;-81
2021/01/21 06:02:18;;;;;;;53.90;29.70;;;;;;;-0.89;85.20;99185.82;120733;1148;104411;-81
2021/01/21 06:04:51;;;;;;;56.30;29.67;;;;;;;-0.87;85.21;99189.22;120744;1150;104318;-81
2021/01/21 06:07:22;;;;;;;53.97;29.93;;;;;;;-0.88;85.23;99190.94;120744;1148;104439;-81
2021/01/21 06:09:49;;;;;;;60.07;29.23;;;;;;;-0.88;85.48;99188.38;120717;1148;104336;-81
2021/01/21 06:12:17;;;;;;;57.23;30.90;;;;;;;-0.86;85.12;99194.34;120754;1148;104864;-81
2021/01/21 06:14:45;;;;;;;57.60;30.47;;;;;;;-0.85;85.65;99188.36;120797;1147;104346;-82
2021/01/21 06:17:12;;;;;;;59.57;31.17;;;;;;;-0.83;85.96;99194.32;120808;1148;104539;-81
2021/01/21 06:20:10;;;;;;;51.37;28.77;;;;;;;-0.80;85.77;99201.98;120731;1148;104441;-81
2021/01/21 06:22:46;;;;;;;53.13;27.57;;;;;;;-0.77;85.29;99201.12;120741;1148;103110;-81
2021/01/21 06:25:16;;;;;;;;;;;;;;;-0.73;85.07;99201.09;120799;1150;105486;-82
2021/01/21 06:27:45;;;;;;;56.00;28.60;;;;;;;-0.70;85.45;99208.80;120740;1148;104401;-81
2021/01/21 06:30:21;;;;;;;51.33;27.83;;;;;;;-0.66;84.83;99199.38;121272;1150;104385;-81
2021/01/21 06:32:50;;;;;;;50.40;27.73;;;;;;;-0.63;85.48;99205.34;121446;1150;103363;-81
2021/01/21 06:35:21;;;;;;;51.43;28.20;;;;;;;-0.58;85.51;99207.02;121498;1148;102067;-81
2021/01/21 06:37:52;;;;;;;51.20;27.70;;;;;;;-0.54;85.07;99203.58;121613;1148;104428;-81
2021/01/21 06:40:21;;;;;;;54.73;29.60;;;;;;;-0.49;84.96;99217.25;121083;1148;104343;-81
2021/01/21 06:43:00;;;;;;;52.27;28.10;;;;;;;-0.44;84.74;99218.07;120805;1148;104326;-81
2021/01/21 06:45:31;;;;;;;52.83;29.23;;;;;;;-0.39;84.84;99213.77;120785;1147;104332;-81
2021/01/21 06:47:59;;;;;;;53.37;28.30;;;;;;;-0.33;84.49;99218.88;120761;1148;104359;-81
2021/01/21 06:50:29;;;;;;;50.40;28.27;;;;;;;-0.29;84.52;99194.95;120828;1148;104346;-81
2021/01/21 06:52:59;;;;;;;48.33;27.43;;;;;;;-0.21;84.11;99208.55;120794;1148;104852;-81
2021/01/21 06:55:27;;;;;;;54.43;28.90;;;;;;;-0.15;83.91;99208.54;120790;1148;104378;-81
2021/01/21 06:57:55;;;;;;;50.90;27.97;;;;;;;-0.08;84.25;99199.09;120740;1148;104514;-81
2021/01/21 07:00:38;;;;;;;51.67;28.00;;;;;;;0.01;84.03;99198.20;120721;1148;104333;-81
2021/01/21 07:03:07;;;;;;;49.47;28.57;;;;;;;0.08;83.91;99210.95;120730;1148;104404;-81
2021/01/21 07:05:34;;;;;;;48.43;27.83;;;;;;;0.12;83.46;99206.66;120759;1148;104549;-81
2021/01/21 07:08:04;;;;;;;45.77;26.67;;;;;;;0.12;83.37;99212.62;120793;1148;103501;-81
2021/01/21 07:10:33;;;;;;;50.53;27.20;;;;;;;0.11;83.33;99204.95;120800;1148;104387;-82
2021/01/21 07:13:19;;;;;;;48.60;27.90;;;;;;;0.12;83.34;99216.91;120695;1148;104410;-82
2021/01/21 07:15:48;;;;;;;50.20;27.73;;;;;;;0.10;83.28;99208.37;120829;1148;101993;-82
2021/01/21 07:18:37;;;;;;;54.53;28.60;;;;;;;0.08;83.40;99205.83;120796;1148;104420;-82
2021/01/21 07:21:06;;;;;;;55.07;30.53;;;;;;;0.08;83.08;99210.10;120774;1148;103127;-81
2021/01/21 07:23:42;;;;;;;54.03;28.60;;;;;;;0.09;83.11;99192.14;120731;1147;104332;-81
2021/01/21 07:26:34;;;;;;;54.53;30.00;;;;;;;0.11;83.27;99210.93;120715;1149;104388;-81
2021/01/21 07:29:09;;;;;;;65.83;33.03;;;;;;;0.15;83.58;99204.06;120736;1148;104417;-81
2021/01/21 07:31:52;;;;;;;60.50;31.57;;;;;;;0.16;83.06;99209.17;120812;1148;102229;-83
2021/01/21 07:34:25;;;;;;;62.27;30.13;;;;;;;0.20;83.08;99207.47;120649;1148;104420;-82
2021/01/21 07:37:20;;;;;;;61.45;30.75;;;;;;;0.22;82.86;99204.03;120710;1148;104405;-82
2021/01/21 07:39:54;;;;;;;55.73;29.70;;;;;;;0.24;82.82;99192.05;120720;1148;104321;-81
2021/01/21 07:42:36;;;;;;;74.25;35.15;;;;;;;0.28;82.98;99193.71;120757;1148;104435;-81
2021/01/21 07:45:08;;;;;;;64.33;31.83;;;;;;;0.32;82.56;99189.41;120716;1148;104397;-81
2021/01/21 07:47:37;;;;;;;63.50;30.87;;;;;;;0.37;82.90;99186.83;120806;1148;104313;-81
2021/01/21 07:50:14;;;;;;;65.03;31.97;;;;;;;0.41;82.40;99194.48;120693;1149;104468;-82
2021/01/21 07:52:42;;;;;;;58.73;29.45;;;;;;;0.45;82.86;99191.02;120791;1148;104806;-82
2021/01/21 07:55:11;;;;;;;58.80;29.70;;;;;;;0.49;82.73;99189.27;121095;1148;104396;-82
2021/01/21 07:57:39;;;;;;;58.27;29.17;;;;;;;0.55;82.77;99187.52;121206;1148;104529;-82
2021/01/21 08:00:09;;;;;;;55.27;28.77;;;;;;;0.61;82.32;99186.61;121081;1150;102536;-82
2021/01/21 08:02:47;;;;;;;52.00;28.27;;;;;;;0.68;82.41;99183.11;120730;1148;102632;-81
2021/01/21 08:05:18;;;;;;;49.80;27.80;;;;;;;0.76;82.52;99180.48;120715;1150;104297;-81
2021/01/21 08:07:51;;;;;;;48.93;26.73;;;;;;;0.85;82.12;99170.11;120757;1148;104358;-81
2021/01/21 08:10:20;;;;;;;49.13;27.07;;;;;;;0.91;81.92;99190.61;120791;1151;104378;-81
2021/01/21 08:13:14;;;;;;;49.83;28.30;;;;;;;0.99;81.69;99183.66;120790;1148;104405;-82
2021/01/21 08:15:43;;;;;;;50.87;28.13;;;;;;;1.07;81.48;99186.98;120765;1147;104407;-81
2021/01/21 08:18:15;;;;;;;52.03;27.80;;;;;;;1.14;81.33;99178.37;120676;1147;104349;-81
2021/01/21 08:20:43;;;;;;;45.10;26.50;;;;;;;1.23;81.07;99172.26;120726;1147;104369;-80
2021/01/21 08:23:10;;;;;;;49.40;27.27;;;;;;;1.32;81.00;99177.30;120736;1148;105170;-80
2021/01/21 08:25:42;;;;;;;47.93;27.33;;;;;;;1.40;81.12;99169.48;120721;1148;104857;-80
2021/01/21 08:28:14;;;;;;;54.53;27.73;;;;;;;1.49;80.49;99171.96;120700;1148;103891;-80
2021/01/21 08:30:42;;;;;;;44.83;27.10;;;;;;;1.59;80.57;99165.81;120767;1148;104447;-81
2021/01/21 08:33:18;;;;;;;51.83;27.43;;;;;;;1.67;80.39;99158.88;120723;1148;104292;-81
2021/01/21 08:35:59;;;;;;;51.85;27.75;;;;;;;1.77;80.61;99162.99;120714;1148;101857;-81
2021/01/21 08:38:35;;;;;;;50.27;27.53;;;;;;;1.95;80.70;99158.46;120757;1148;104788;-81
2021/01/21 08:41:04;;;;;;;50.87;27.93;;;;;;;2.15;80.05;99156.44;120685;1148;104376;-81
2021/01/21 08:43:32;;;;;;;50.70;28.57;;;;;;;2.33;79.46;99163.01;120824;1148;104339;-82
2021/01/21 08:46:11;;;;;;;47.60;27.30;;;;;;;2.50;79.42;99157.59;120739;1148;104366;-81
2021/01/21 08:48:38;;;;;;;46.23;27.03;;;;;;;2.79;78.96;99165.66;120780;1148;104320;-81
2021/01/21 08:51:42;;;;;;;47.73;27.23;;;;;;;3.12;78.35;99163.34;120694;1148;104561;-81
2021/01/21 08:54:19;;;;;;;53.27;28.00;;;;;;;3.51;77.54;99156.53;120658;1148;104483;-81
2021/01/21 08:57:12;;;;;;;47.00;27.20;;;;;;;3.91;77.25;99153.93;120689;1148;104348;-80
2021/01/21 08:59:39;;;;;;;44.97;27.77;;;;;;;4.45;75.65;99148.34;120691;1148;104311;-82
2021/01/21 09:02:09;;;;;;;49.05;28.60;;;;;;;4.93;74.15;99155.73;120707;1148;104294;-81
2021/01/21 09:04:41;;;;;;;42.13;25.40;;;;;;;5.38;75.44;99154.45;120733;1147;103050;-81
2021/01/21 09:07:09;;;;;;;40.60;25.33;;;;;;;5.85;73.54;99159.13;120645;1148;104240;-81
2021/01/21 09:09:41;;;;;;;36.57;24.40;;;;;;;6.22;73.02;99154.54;120795;1148;104359;-81
2021/01/21 09:12:22;;;;;;;38.03;23.60;;;;;;;6.66;72.93;99147.08;120686;1148;104265;-81
2021/01/21 09:15:01;;;;;;;42.10;26.37;;;;;;;7.13;70.92;99149.75;120706;1148;104821;-81
2021/01/21 09:17:30;;;;;;;37.70;24.67;;;;;;;7.57;70.23;99145.55;120747;1148;104262;-82
2021/01/21 09:19:59;;;;;;;35.50;23.53;;;;;;;7.78;69.22;99141.30;120721;1148;104479;-82
2021/01/21 09:22:49;;;;;;;37.10;24.83;;;;;;;8.09;67.91;99139.20;120694;1148;104404;-81
2021/01/21 09:25:24;;;;;;;34.13;22.40;;;;;;;8.30;68.97;99131.45;120776;1148;104332;-81
2021/01/21 09:27:53;;;;;;;33.10;23.10;;;;;;;8.66;68.16;99136.92;120779;1148;104333;-82
2021/01/21 09:30:22;;;;;;;31.70;20.43;;;;;;;8.91;66.44;99132.35;120712;1148;104481;-82
2021/01/21 09:32:49;;;;;;;29.27;20.23;;;;;;;9.02;61.41;99131.91;120656;1148;104220;-82
2021/01/21 09:35:21;;;;;;;28.93;20.23;;;;;;;9.12;62.47;99122.77;120713;1148;104298;-81
2021/01/21 09:37:52;;;;;;;30.93;20.17;;;;;;;9.22;61.82;99123.22;120736;1148;104329;-82
2021/01/21 09:40:22;;;;;;;28.07;18.10;;;;;;;9.23;62.78;99127.51;120782;1148;102790;-81
2021/01/21 09:42:56;;;;;;;26.30;18.40;;;;;;;9.18;63.31;99129.48;120765;1148;104441;-81
2021/01/21 09:45:25;;;;;;;25.27;16.87;;;;;;;9.13;61.38;99114.05;120794;1148;104809;-81
2021/01/21 09:47:54;;;;;;;24.77;16.87;;;;;;;9.07;61.91;99112.57;120798;1148;104367;-81
2021/01/21 09:50:23;;;;;;;25.43;16.80;;;;;;;9.08;61.51;99131.63;120753;1148;104396;-81
2021/01/21 09:52:51;;;;;;;23.80;16.13;;;;;;;9.21;62.24;99117.17;120776;1148;104354;-80
2021/01/21 09:55:18;;;;;;;24.43;17.30;;;;;;;9.35;60.31;99109.59;120827;1148;104878;-82
2021/01/21 09:57:46;;;;;;;28.53;18.80;;;;;;;9.36;59.19;99106.08;120683;1148;104307;-82
2021/01/21 10:00:14;;;;;;;26.00;17.70;;;;;;;9.41;60.98;99103.27;120737;1148;104468;-82
2021/01/21 10:02:42;;;;;;;25.83;16.47;;;;;;;9.42;59.46;99104.95;120844;1148;104409;-81
2021/01/21 10:05:10;;;;;;;25.07;17.30;;;;;;;9.38;57.50;99112.06;120741;1148;104327;-82
2021/01/21 10:07:38;;;;;;;25.53;16.10;;;;;;;9.35;59.52;99088.78;120691;1148;104805;-82
2021/01/21 10:10:06;;;;;;;25.33;15.70;;;;;;;9.37;60.29;99088.71;120673;1148;102293;-82
2021/01/21 10:12:33;;;;;;;23.90;16.17;;;;;;;9.33;59.00;99087.98;120626;1148;104314;-83
2021/01/21 10:15:03;;;;;;;21.90;15.35;;;;;;;9.33;61.38;99079.33;120657;1148;104377;-82
2021/01/21 10:17:32;;;;;;;22.37;15.73;;;;;;;9.46;59.71;99092.63;120721;1147;104359;-82
2021/01/21 10:20:00;;;;;;;23.20;16.20;;;;;;;9.52;60.33;99089.77;120773;1148;101989;-82
2021/01/21 10:22:27;;;;;;;24.30;16.43;;;;;;;9.56;60.46;99086.95;120668;1148;104338;-81
2021/01/21 10:24:55;;;;;;;21.60;14.93;;;;;;;9.54;59.35;99085.34;120735;1148;104334;-81
2021/01/21 10:27:27;;;;;;;25.40;16.70;;;;;;;9.43;58.89;99093.63;120699;1148;104372;-82
2021/01/21 10:29:55;;;;;;;24.63;16.63;;;;;;;9.45;60.37;99091.80;120783;1148;104370;-81
2021/01/21 10:32:37;;;;;;;27.03;17.57;;;;;;;9.51;60.68;99094.10;120752;1148;104446;-81
2021/01/21 10:35:05;;;;;;;25.77;17.73;;;;;;;9.59;58.71;99097.21;120619;1148;104448;-81
2021/01/21 10:37:32;;;;;;;24.57;18.17;;;;;;;9.63;58.40;99085.73;120718;1148;104412;-82
2021/01/21 10:40:00;;;;;;;24.07;15.73;;;;;;;9.60;57.76;99085.04;120738;1148;104975;-82
2021/01/21 10:42:27;;;;;;;24.12;16.52;;;;;;;9.49;59.04;99080.31;120778;1148;104310;-82
2021/01/21 10:44:54;;;;;;;26.40;17.23;;;;;;;9.46;58.84;99079.63;120701;1148;104419;-81
2021/01/21 10:47:22;;;;;;;28.40;17.80;;;;;;;9.44;57.52;99084.91;120714;1148;104297;-82
2021/01/21 10:49:50;;;;;;;25.57;17.77;;;;;;;9.42;57.62;99083.28;120753;1148;104394;-81
2021/01/21 10:52:17;;;;;;;23.20;14.97;;;;;;;9.30;58.04;99072.52;120730;1148;104364;-81
2021/01/21 10:54:46;;;;;;;26.27;16.80;;;;;;;9.22;57.21;99081.59;120756;1148;104471;-83
2021/01/21 10:57:13;;;;;;;26.40;17.53;;;;;;;9.18;58.34;99069.64;120708;1148;104356;-82
2021/01/21 10:59:40;;;;;;;26.90;18.33;;;;;;;9.11;57.28;99063.02;120680;1148;104305;-82
2021/01/21 11:02:09;;;;;;;30.60;18.00;;;;;;;9.05;58.25;99080.59;120714;1148;104298;-81
2021/01/21 11:04:38;;;;;;;27.60;18.13;;;;;;;9.00;58.33;99079.95;120642;1147;101983;-81
2021/01/21 11:07:05;;;;;;;28.70;19.17;;;;;;;8.94;59.08;99067.20;120601;1151;104323;-82
2021/01/21 11:09:35;;;;;;;28.20;17.75;;;;;;;8.83;58.76;99053.85;120689;1148;104491;-81
2021/01/21 11:12:05;;;;;;;26.80;19.23;;;;;;;8.76;58.83;99057.61;120697;1151;104558;-82
2021/01/21 11:14:34;;;;;;;39.33;20.97;;;;;;;8.70;57.49;99058.73;120700;1148;104379;-81
2021/01/21 11:17:01;;;;;;;29.83;19.30;;;;;;;8.68;57.88;99044.96;120648;1148;104359;-81
2021/01/21 11:19:29;;;;;;;28.00;19.27;;;;;;;8.63;58.77;99043.48;120656;1148;104442;-81
2021/01/21 11:21:56;;;;;;;31.35;20.82;;;;;;;8.46;58.70;99055.44;120670;1148;103239;-81
2021/01/21 11:24:23;;;;;;;27.37;19.70;;;;;;;8.33;58.98;99046.44;120654;1148;104318;-82
2021/01/21 11:26:50;;;;;;;30.47;19.57;;;;;;;8.28;59.99;99034.56;120739;1148;104420;-82
2021/01/21 11:29:17;;;;;;;27.90;19.07;;;;;;;8.22;59.48;99029.60;120716;1147;104319;-81
2021/01/21 11:31:45;;;;;;;30.03;20.07;;;;;;;8.14;59.82;99029.94;120685;1148;104430;-80